createdAt,value
2022-10-01T00:01:24.398Z,101174.72
2022-10-01T00:03:50.995Z,101171.19
2022-10-01T00:06:20.145Z,101175.31
2022-10-01T00:08:49.380Z,101150.97
2022-10-01T00:11:24.767Z,101166.22
2022-10-01T00:13:52.389Z,101171.38
2022-10-01T00:16:21.980Z,101146.94
2022-10-01T00:18:49.676Z,101158.97
2022-10-01T00:21:20.898Z,101151.03
2022-10-01T00:23:48.449Z,101155.09
2022-10-01T00:26:21.910Z,101155.81
2022-10-01T00:28:55.580Z,101156.75
2022-10-01T00:31:23.442Z,101152.47
2022-10-01T00:33:53.273Z,101153.09
2022-10-01T00:36:20.434Z,101159.97
2022-10-01T00:38:48.953Z,101145.94
2022-10-01T00:41:17.408Z,101148.44
2022-10-01T00:43:46.787Z,101135.31
2022-10-01T00:46:22.447Z,101146.56
2022-10-01T00:49:19.064Z,101144.56
2022-10-01T00:51:50.880Z,101136.66
2022-10-01T00:54:22.382Z,101135.66
2022-10-01T00:56:53.984Z,101123.31
2022-10-01T00:59:20.982Z,101152.78
2022-10-01T01:01:48.845Z,101151.88
2022-10-01T01:04:18.139Z,101149.22
2022-10-01T01:06:53.835Z,101137.56
2022-10-01T01:09:22.760Z,101142.06
2022-10-01T01:12:16.843Z,101138.28
2022-10-01T01:14:56.173Z,101125.28
2022-10-01T01:17:49.264Z,101133.03
2022-10-01T01:20:51.762Z,101131.91
2022-10-01T01:23:18.452Z,101130.22
2022-10-01T01:26:04.959Z,101130.09
2022-10-01T01:28:38.027Z,101140.59
2022-10-01T01:31:13.102Z,101141.25
2022-10-01T01:33:43.690Z,101132.66
2022-10-01T01:36:19.307Z,101135.06
2022-10-01T01:38:54.916Z,101141.97
2022-10-01T01:41:27.142Z,101115.91
2022-10-01T01:43:56.981Z,101140.13
2022-10-01T01:46:33.950Z,101135.69
2022-10-01T01:49:02.235Z,101138.28
2022-10-01T01:51:43.659Z,101129.44
2022-10-01T01:54:10.347Z,101126.84
2022-10-01T01:56:37.139Z,101113.78
2022-10-01T01:59:04.056Z,101119.69
2022-10-01T02:01:42.463Z,101126.59
2022-10-01T02:04:21.985Z,101119.56
2022-10-01T02:07:16.695Z,101125.56
2022-10-01T02:10:25.598Z,101113.19
2022-10-01T02:13:39.087Z,101111.50
2022-10-01T02:16:31.645Z,101104.50
2022-10-01T02:19:46.256Z,101116.72
2022-10-01T02:22:19.855Z,101114.91
2022-10-01T02:24:53.071Z,101115.81
2022-10-01T02:27:29.896Z,101117.56
2022-10-01T02:30:00.617Z,101112.31
2022-10-01T02:32:31.779Z,101114.06
2022-10-01T02:35:00.374Z,101109.50
2022-10-01T02:37:28.363Z,101108.75
2022-10-01T02:39:57.631Z,101119.19
2022-10-01T02:42:28.827Z,101117.50
2022-10-01T02:45:02.589Z,101112.31
2022-10-01T02:47:40.871Z,101112.94
2022-10-01T02:50:09.097Z,101111.22
2022-10-01T02:53:00.091Z,101110.19
2022-10-01T02:55:31.627Z,101113.72
2022-10-01T02:57:58.630Z,101114.69
2022-10-01T03:00:27.049Z,101113.81
2022-10-01T03:02:54.718Z,101121.66
2022-10-01T03:05:22.157Z,101123.41
2022-10-01T03:07:48.862Z,101112.84
2022-10-01T03:10:16.301Z,101125.94
2022-10-01T03:12:45.190Z,101125.00
2022-10-01T03:15:13.383Z,101117.91
2022-10-01T03:17:41.095Z,101121.34
2022-10-01T03:20:09.062Z,101089.16
2022-10-01T03:22:35.814Z,101115.94
2022-10-01T03:25:02.756Z,101115.09
2022-10-01T03:27:31.734Z,101106.41
2022-10-01T03:29:58.294Z,101116.75
2022-10-01T03:32:24.911Z,101115.94
2022-10-01T03:34:51.494Z,101113.25
2022-10-01T03:37:18.094Z,101113.28
2022-10-01T03:39:45.783Z,101122.91
2022-10-01T03:42:12.372Z,101123.88
2022-10-01T03:44:39.026Z,101123.09
2022-10-01T03:47:07.267Z,101119.41
2022-10-01T03:49:34.698Z,101112.63
2022-10-01T03:52:02.421Z,101116.69
2022-10-01T03:54:31.258Z,101120.84
2022-10-01T03:56:57.960Z,101125.13
2022-10-01T03:59:26.304Z,101120.53
2022-10-01T04:01:55.358Z,101102.41
2022-10-01T04:04:22.037Z,101118.94
2022-10-01T04:06:48.889Z,101123.31
2022-10-01T04:09:15.508Z,101103.25
2022-10-01T04:11:42.073Z,101124.94
2022-10-01T04:14:09.117Z,101116.00
2022-10-01T04:16:36.419Z,101109.72
2022-10-01T04:19:04.699Z,101108.63
2022-10-01T04:21:31.516Z,101122.41
2022-10-01T04:23:59.748Z,101116.25
2022-10-01T04:26:29.078Z,101102.13
2022-10-01T04:28:55.668Z,101109.53
2022-10-01T04:31:25.152Z,101113.72
2022-10-01T04:33:56.605Z,101117.31
2022-10-01T04:36:24.610Z,101114.06
2022-10-01T04:39:00.845Z,101108.91
2022-10-01T04:41:30.871Z,101113.22
2022-10-01T04:43:59.453Z,101079.66
2022-10-01T04:46:26.180Z,101111.53
2022-10-01T04:48:52.816Z,101109.53
2022-10-01T04:51:19.436Z,101097.94
2022-10-01T04:53:46.088Z,101106.75
2022-10-01T04:56:12.688Z,101103.88
2022-10-01T04:58:39.453Z,101086.66
2022-10-01T05:01:06.214Z,101097.13
2022-10-01T05:03:32.887Z,101090.09
2022-10-01T05:06:01.091Z,101080.47
2022-10-01T05:08:27.701Z,101100.72
2022-10-01T05:10:54.386Z,101077.28
2022-10-01T05:13:21.064Z,101082.78
2022-10-01T05:15:52.240Z,101099.94
2022-10-01T05:18:19.198Z,101089.69
